Time;durP1;ratioP1;P1;durP2;ratioP2;P2;SDS_P1;SDS_P2;PMS_P1;PMS_P2;Temp;Humidity;BMP_temperature;BMP_pressure;BME280_temperature;BME280_humidity;BME280_pressure;Samples;Min_cycle;Max_cycle;Signal;HPM_P1;HPM_P2
2022/06/09 00:01:40;;;;;;;;;;;24.00;36.70;;;;;;4078051;28;20287;-39
2022/06/09 00:03:55;;;;;;;;;;;23.80;36.80;;;;;;4094539;28;19964;-36
2022/06/09 00:05:57;;;;;;;;;;;23.60;37.20;;;;;;4102767;28;19929;-37
2022/06/09 00:08:02;;;;;;;;;;;23.40;37.20;;;;;;4100187;28;19951;-37
2022/06/09 00:10:12;;;;;;;;;;;23.30;37.50;;;;;;4097448;28;20149;-39
2022/06/09 00:12:14;;;;;;;;;;;23.10;37.60;;;;;;4099504;28;20511;-38
2022/06/09 00:14:16;;;;;;;;;;;23.00;37.90;;;;;;4108263;28;20359;-37
2022/06/09 00:16:18;;;;;;;;;;;22.80;38.00;;;;;;4101097;28;21257;-37
2022/06/09 00:18:21;;;;;;;;;;;22.70;38.10;;;;;;4100688;28;20277;-38
2022/06/09 00:20:23;;;;;;;;;;;22.60;38.30;;;;;;4103089;28;20399;-36
2022/06/09 00:22:25;;;;;;;;;;;22.50;38.40;;;;;;4102761;28;20347;-36
2022/06/09 00:24:26;;;;;;;;;;;22.30;38.50;;;;;;4099687;28;20032;-36
2022/06/09 00:26:28;;;;;;;;;;;22.20;38.60;;;;;;4102391;28;20583;-36
2022/06/09 00:28:30;;;;;;;;;;;22.10;38.80;;;;;;4105053;28;19929;-36
2022/06/09 00:30:32;;;;;;;;;;;22.00;38.80;;;;;;4098036;28;19925;-38
2022/06/09 00:32:34;;;;;;;;;;;21.90;39.10;;;;;;4101385;28;19925;-36
2022/06/09 00:34:35;;;;;;;;;;;21.80;39.10;;;;;;4104276;28;20395;-35
2022/06/09 00:36:37;;;;;;;;;;;21.60;39.90;;;;;;4100924;28;19929;-37
2022/06/09 00:38:39;;;;;;;;;;;21.70;39.70;;;;;;4098721;28;20035;-35
2022/06/09 00:40:41;;;;;;;;;;;21.90;39.60;;;;;;4103318;28;20351;-35
2022/06/09 00:42:42;;;;;;;;;;;22.30;39.40;;;;;;4111248;28;21154;-35
2022/06/09 00:44:44;;;;;;;;;;;22.70;38.90;;;;;;4096572;28;19928;-35
2022/06/09 00:46:47;;;;;;;;;;;23.10;38.40;;;;;;4104577;28;20302;-36
2022/06/09 00:48:49;;;;;;;;;;;23.50;37.80;;;;;;4100459;28;20502;-36
2022/06/09 00:50:52;;;;;;;;;;;23.90;37.50;;;;;;4096727;28;20470;-36
2022/06/09 00:52:56;;;;;;;;;;;24.20;37.40;;;;;;4100839;28;19929;-36
2022/06/09 00:55:01;;;;;;;;;;;24.40;36.70;;;;;;4106843;28;21250;-37
2022/06/09 00:57:06;;;;;;;;;;;24.70;36.50;;;;;;4098766;28;20550;-37
2022/06/09 00:59:10;;;;;;;;;;;25.00;36.30;;;;;;4098255;28;20216;-37
2022/06/09 01:01:13;;;;;;;;;;;25.20;36.00;;;;;;4097522;28;20015;-39
2022/06/09 01:03:17;;;;;;;;;;;25.40;36.10;;;;;;4108149;28;20440;-35
2022/06/09 01:05:21;;;;;;;;;;;25.60;35.50;;;;;;4100110;28;19933;-36
2022/06/09 01:07:30;;;;;;;;;;;25.70;35.70;;;;;;4098797;28;19963;-39
2022/06/09 01:09:32;;;;;;;;;;;25.70;35.70;;;;;;4099131;28;20344;-37
2022/06/09 01:11:34;;;;;;;;;;;25.40;36.10;;;;;;4103209;28;19925;-39
2022/06/09 01:13:36;;;;;;;;;;;25.00;37.00;;;;;;4103560;28;19928;-37
2022/06/09 01:15:37;;;;;;;;;;;24.80;37.50;;;;;;4099859;28;19931;-37
2022/06/09 01:17:39;;;;;;;;;;;24.40;37.80;;;;;;4098452;28;19956;-36
2022/06/09 01:19:41;;;;;;;;;;;24.20;38.00;;;;;;4108202;28;19929;-37
2022/06/09 01:21:51;;;;;;;;;;;24.00;38.20;;;;;;4096473;28;20652;-36
2022/06/09 01:24:09;;;;;;;;;;;23.80;38.50;;;;;;4098603;28;20347;-37
2022/06/09 01:26:22;;;;;;;;;;;23.60;38.70;;;;;;4101341;28;20840;-36
2022/06/09 01:28:58;;;;;;;;;;;23.40;38.70;;;;;;4097613;28;20546;-39
2022/06/09 01:31:02;;;;;;;;;;;23.20;38.90;;;;;;4094520;28;19936;-38
2022/06/09 01:33:11;;;;;;;;;;;23.00;38.90;;;;;;4093418;28;20363;-36
2022/06/09 01:35:23;;;;;;;;;;;22.90;39.20;;;;;;4106739;28;19933;-39
2022/06/09 01:37:30;;;;;;;;;;;22.80;39.40;;;;;;4107823;28;20026;-40
2022/06/09 01:39:47;;;;;;;;;;;22.70;39.50;;;;;;4109219;28;19929;-36
2022/06/09 01:41:49;;;;;;;;;;;22.60;39.60;;;;;;4107229;28;19935;-39
2022/06/09 01:43:51;;;;;;;;;;;22.40;39.70;;;;;;4101355;28;20388;-37
2022/06/09 01:46:07;;;;;;;;;;;22.40;39.80;;;;;;4098475;28;19924;-43
2022/06/09 01:48:10;;;;;;;;;;;22.30;39.90;;;;;;4095735;28;20459;-43
2022/06/09 01:50:15;;;;;;;;;;;22.20;40.10;;;;;;4096158;28;19955;-36
2022/06/09 01:52:17;;;;;;;;;;;22.10;40.00;;;;;;4108979;28;19938;-37
2022/06/09 01:54:22;;;;;;;;;;;22.00;40.20;;;;;;4099078;28;19971;-40
2022/06/09 01:56:26;;;;;;;;;;;22.00;40.20;;;;;;4098105;28;19929;-36
2022/06/09 01:58:30;;;;;;;;;;;21.90;40.30;;;;;;4099996;28;20005;-37
2022/06/09 02:00:32;;;;;;;;;;;21.80;40.40;;;;;;4104811;28;19932;-40
2022/06/09 02:02:39;;;;;;;;;;;21.70;40.50;;;;;;4098401;28;21119;-37
2022/06/09 02:04:44;;;;;;;;;;;21.60;40.60;;;;;;4099735;28;20020;-37
2022/06/09 02:06:46;;;;;;;;;;;21.50;40.70;;;;;;4090797;28;19952;-37
2022/06/09 02:08:48;;;;;;;;;;;21.50;40.80;;;;;;4080048;28;19952;-37
2022/06/09 02:11:01;;;;;;;;;;;21.40;40.80;;;;;;4092063;28;19930;-36
2022/06/09 02:13:07;;;;;;;;;;;21.30;40.90;;;;;;4075977;28;21095;-38
2022/06/09 02:15:11;;;;;;;;;;;21.30;41.00;;;;;;4088908;28;19999;-37
2022/06/09 02:17:12;;;;;;;;;;;21.20;40.90;;;;;;4070884;28;19926;-39
2022/06/09 02:19:14;;;;;;;;;;;21.20;41.20;;;;;;4096690;28;19964;-40
2022/06/09 02:21:18;;;;;;;;;;;21.00;41.20;;;;;;4090266;28;19929;-38
2022/06/09 02:23:20;;;;;;;;;;;21.00;40.60;;;;;;4090892;28;19932;-40
2022/06/09 02:25:22;;;;;;;;;;;20.90;40.20;;;;;;4078212;28;19969;-38
2022/06/09 02:27:23;;;;;;;;;;;20.70;40.00;;;;;;4079342;28;20960;-38
2022/06/09 02:29:25;;;;;;;;;;;20.50;40.00;;;;;;4088835;28;20382;-37
2022/06/09 02:31:27;;;;;;;;;;;20.40;40.20;;;;;;4093772;28;19926;-38
2022/06/09 02:33:29;;;;;;;;;;;20.30;40.30;;;;;;4099399;28;19933;-39
2022/06/09 02:35:31;;;;;;;;;;;20.10;40.30;;;;;;4092577;28;19929;-38
2022/06/09 02:37:32;;;;;;;;;;;20.00;40.50;;;;;;4095986;28;20476;-38
2022/06/09 02:39:34;;;;;;;;;;;19.90;40.70;;;;;;4101417;28;19932;-41
2022/06/09 02:41:36;;;;;;;;;;;19.80;40.70;;;;;;4091690;28;20257;-38
2022/06/09 02:43:37;;;;;;;;;;;19.70;40.90;;;;;;4088927;28;19959;-38
2022/06/09 02:45:39;;;;;;;;;;;19.60;40.90;;;;;;4100880;28;20383;-38
2022/06/09 02:47:41;;;;;;;;;;;19.60;41.80;;;;;;4092154;28;19941;-38
2022/06/09 02:49:44;;;;;;;;;;;19.50;41.30;;;;;;4093225;28;20097;-40
2022/06/09 02:51:46;;;;;;;;;;;19.40;41.30;;;;;;4096630;28;19930;-38
2022/06/09 02:53:47;;;;;;;;;;;19.30;41.40;;;;;;4074384;28;19930;-40
2022/06/09 02:55:49;;;;;;;;;;;19.20;41.50;;;;;;4077023;28;20032;-39
2022/06/09 02:57:51;;;;;;;;;;;19.20;41.70;;;;;;4097288;28;19930;-40
2022/06/09 02:59:53;;;;;;;;;;;19.10;41.80;;;;;;4100269;28;21176;-37
2022/06/09 03:01:54;;;;;;;;;;;19.10;41.50;;;;;;4069788;28;20070;-37
2022/06/09 03:03:56;;;;;;;;;;;19.40;41.70;;;;;;4097160;28;20470;-39
2022/06/09 03:05:58;;;;;;;;;;;20.00;41.30;;;;;;4101622;28;20236;-39
2022/06/09 03:07:59;;;;;;;;;;;20.60;40.60;;;;;;4104380;28;19925;-42
2022/06/09 03:10:01;;;;;;;;;;;21.20;40.00;;;;;;4102058;28;20015;-37
2022/06/09 03:12:03;;;;;;;;;;;21.70;39.40;;;;;;4107956;28;19929;-38
2022/06/09 03:14:04;;;;;;;;;;;22.20;39.00;;;;;;4102298;28;20340;-39
2022/06/09 03:16:07;;;;;;;;;;;22.70;38.50;;;;;;4100811;28;19936;-38
2022/06/09 03:18:08;;;;;;;;;;;23.10;38.10;;;;;;4104163;28;20054;-39
2022/06/09 03:20:12;;;;;;;;;;;23.50;37.70;;;;;;4102531;28;20348;-39
2022/06/09 03:22:14;;;;;;;;;;;23.80;37.40;;;;;;4098891;28;20000;-40
2022/06/09 03:24:16;;;;;;;;;;;24.20;37.80;;;;;;4111534;28;20721;-38
2022/06/09 03:26:17;;;;;;;;;;;24.50;37.00;;;;;;4103203;28;20409;-37
2022/06/09 03:28:19;;;;;;;;;;;24.70;36.60;;;;;;4103172;28;20684;-40
2022/06/09 03:30:21;;;;;;;;;;;25.00;36.30;;;;;;4104604;28;19936;-38
2022/06/09 03:32:23;;;;;;;;;;;25.30;36.20;;;;;;4104744;28;20051;-39
2022/06/09 03:34:24;;;;;;;;;;;25.40;36.10;;;;;;4099378;28;20019;-43
2022/06/09 03:36:26;;;;;;;;;;;25.10;36.20;;;;;;4105338;28;20399;-38
2022/06/09 03:38:28;;;;;;;;;;;24.80;36.70;;;;;;4108688;28;20509;-39
2022/06/09 03:40:30;;;;;;;;;;;24.60;37.00;;;;;;4101120;28;19936;-40
2022/06/09 03:42:31;;;;;;;;;;;24.30;37.40;;;;;;4104157;28;19955;-38
2022/06/09 03:44:33;;;;;;;;;;;24.00;37.60;;;;;;4106169;28;19941;-40
2022/06/09 03:46:35;;;;;;;;;;;23.80;37.90;;;;;;4101121;28;19940;-41
2022/06/09 03:48:36;;;;;;;;;;;23.60;37.80;;;;;;4100658;28;19994;-38
2022/06/09 03:50:38;;;;;;;;;;;23.40;38.10;;;;;;4109447;28;19933;-38
2022/06/09 03:52:39;;;;;;;;;;;23.20;38.30;;;;;;4101587;28;19972;-39
2022/06/09 03:54:41;;;;;;;;;;;23.00;38.50;;;;;;4099302;28;20246;-38
2022/06/09 03:56:43;;;;;;;;;;;22.90;38.80;;;;;;4105703;28;20015;-38
2022/06/09 03:58:45;;;;;;;;;;;22.80;39.00;;;;;;4100915;28;20652;-40
2022/06/09 04:00:46;;;;;;;;;;;22.70;39.20;;;;;;4102282;28;19928;-38
2022/06/09 04:02:48;;;;;;;;;;;22.60;39.30;;;;;;4109058;28;19976;-38
2022/06/09 04:04:52;;;;;;;;;;;22.60;39.60;;;;;;4100454;28;20363;-38
2022/06/09 04:06:53;;;;;;;;;;;22.50;39.70;;;;;;4097713;28;20036;-38
2022/06/09 04:08:55;;;;;;;;;;;22.40;39.70;;;;;;4105033;28;19987;-39
2022/06/09 04:10:57;;;;;;;;;;;22.30;39.70;;;;;;4101420;28;20445;-38
2022/06/09 04:12:59;;;;;;;;;;;22.30;39.80;;;;;;4097869;28;20408;-37
2022/06/09 04:15:01;;;;;;;;;;;22.30;40.00;;;;;;4102288;28;19929;-38
2022/06/09 04:17:03;;;;;;;;;;;22.20;40.00;;;;;;4106090;28;20235;-38
2022/06/09 04:19:07;;;;;;;;;;;22.20;40.10;;;;;;4101035;28;20045;-38
2022/06/09 04:21:09;;;;;;;;;;;22.20;40.20;;;;;;4099720;28;20164;-37
2022/06/09 04:23:10;;;;;;;;;;;22.10;40.20;;;;;;4109248;28;20475;-38
2022/06/09 04:25:12;;;;;;;;;;;22.10;40.30;;;;;;4099057;28;20658;-37
2022/06/09 04:27:14;;;;;;;;;;;22.10;40.40;;;;;;4101359;28;19930;-38
2022/06/09 04:29:15;;;;;;;;;;;22.00;40.50;;;;;;4104955;28;19930;-40
2022/06/09 04:31:17;;;;;;;;;;;22.00;40.50;;;;;;4119797;28;20008;-37
2022/06/09 04:33:19;;;;;;;;;;;22.00;40.50;;;;;;4100311;28;20404;-38
2022/06/09 04:35:20;;;;;;;;;;;22.00;40.60;;;;;;4104709;28;20020;-38
2022/06/09 04:37:59;;;;;;;;;;;22.00;40.60;;;;;;4095381;28;20006;-39
2022/06/09 04:39:43;;;;;;;;;;;22.00;40.70;;;;;;4104142;28;19929;-37
2022/06/09 04:41:45;;;;;;;;;;;21.90;40.70;;;;;;4099802;28;19936;-39
2022/06/09 04:43:47;;;;;;;;;;;21.90;40.80;;;;;;4099292;28;19976;-38
2022/06/09 04:45:49;;;;;;;;;;;21.90;40.80;;;;;;4104822;28;19933;-39
2022/06/09 04:47:51;;;;;;;;;;;21.90;40.80;;;;;;4106498;28;20039;-38
2022/06/09 04:49:52;;;;;;;;;;;21.90;40.40;;;;;;4114080;28;20443;-38
2022/06/09 04:51:54;;;;;;;;;;;21.90;40.40;;;;;;4100286;28;20503;-39
2022/06/09 04:53:57;;;;;;;;;;;21.90;40.60;;;;;;4107511;28;20399;-38
2022/06/09 04:55:59;;;;;;;;;;;21.80;40.60;;;;;;4099671;28;20425;-38
2022/06/09 04:58:00;;;;;;;;;;;21.80;40.70;;;;;;4095001;28;19925;-38
2022/06/09 05:00:03;;;;;;;;;;;21.80;40.80;;;;;;4100843;28;20039;-41
2022/06/09 05:02:05;;;;;;;;;;;21.80;40.80;;;;;;4092707;28;21000;-37
2022/06/09 05:04:06;;;;;;;;;;;21.70;40.80;;;;;;4098054;28;19929;-38
2022/06/09 05:06:08;;;;;;;;;;;21.70;40.90;;;;;;4105697;28;20322;-38
2022/06/09 05:08:11;;;;;;;;;;;21.70;40.90;;;;;;4099610;28;19929;-38
2022/06/09 05:10:13;;;;;;;;;;;21.60;41.00;;;;;;4096791;28;19925;-38
2022/06/09 05:12:15;;;;;;;;;;;21.60;41.10;;;;;;4102321;28;20336;-40
2022/06/09 05:14:16;;;;;;;;;;;21.60;41.20;;;;;;4104528;28;21187;-38
2022/06/09 05:16:18;;;;;;;;;;;21.50;41.10;;;;;;4099709;28;20460;-37
2022/06/09 05:18:21;;;;;;;;;;;21.50;41.10;;;;;;4099172;28;19926;-40
2022/06/09 05:20:23;;;;;;;;;;;21.50;41.30;;;;;;4105058;28;19936;-39
2022/06/09 05:22:25;;;;;;;;;;;21.40;41.30;;;;;;4093652;28;19926;-38
2022/06/09 05:24:27;;;;;;;;;;;21.40;41.50;;;;;;4096950;28;20136;-37
2022/06/09 05:26:28;;;;;;;;;;;21.30;41.50;;;;;;4104533;28;19933;-37
2022/06/09 05:28:30;;;;;;;;;;;21.30;41.70;;;;;;4096032;28;20964;-40
2022/06/09 05:30:32;;;;;;;;;;;21.20;41.80;;;;;;4096311;28;20063;-37
2022/06/09 05:32:34;;;;;;;;;;;21.20;41.70;;;;;;4104984;28;19940;-39
2022/06/09 05:34:35;;;;;;;;;;;21.10;41.80;;;;;;4094085;28;20687;-38
2022/06/09 05:36:38;;;;;;;;;;;21.10;41.80;;;;;;4095478;28;19929;-38
2022/06/09 05:45:39;;;;;;;;;;;21.00;42.00;;;;;;4103502;28;19929;-37
2022/06/09 05:47:41;;;;;;;;;;;20.90;42.20;;;;;;4095982;28;20369;-37
2022/06/09 05:49:44;;;;;;;;;;;20.90;42.40;;;;;;4098985;28;19925;-37
2022/06/09 05:51:49;;;;;;;;;;;20.90;42.50;;;;;;4100082;28;19936;-37
2022/06/09 05:53:51;;;;;;;;;;;20.80;42.60;;;;;;4100035;28;20505;-42
2022/06/09 05:55:52;;;;;;;;;;;20.80;42.70;;;;;;4097676;28;20738;-37
2022/06/09 05:57:54;;;;;;;;;;;20.80;42.70;;;;;;4106791;28;20365;-37
2022/06/09 05:59:55;;;;;;;;;;;20.70;42.70;;;;;;4101379;28;19940;-38
2022/06/09 06:02:00;;;;;;;;;;;20.70;42.70;;;;;;4095350;28;19970;-40
2022/06/09 06:04:06;;;;;;;;;;;20.70;42.80;;;;;;4097699;28;19936;-37
2022/06/09 06:08:27;;;;;;;;;;;20.60;43.10;;;;;;4092417;28;20355;-38
2022/06/09 06:10:28;;;;;;;;;;;20.60;43.20;;;;;;4095839;28;20097;-41
2022/06/09 06:12:31;;;;;;;;;;;20.60;43.20;;;;;;4087309;28;19929;-38
2022/06/09 06:14:32;;;;;;;;;;;20.50;43.10;;;;;;4089292;28;19932;-38
2022/06/09 06:16:34;;;;;;;;;;;20.50;43.30;;;;;;4098131;28;19929;-39
2022/06/09 06:18:36;;;;;;;;;;;20.50;43.30;;;;;;4090673;28;19929;-40
2022/06/09 06:20:37;;;;;;;;;;;20.50;43.30;;;;;;4092395;28;19936;-37
2022/06/09 06:22:39;;;;;;;;;;;20.50;43.30;;;;;;4080847;28;19925;-38
2022/06/09 06:24:40;;;;;;;;;;;20.40;43.40;;;;;;4093237;28;20299;-37
2022/06/09 06:26:42;;;;;;;;;;;20.40;43.40;;;;;;4089656;28;19926;-37
2022/06/09 06:28:44;;;;;;;;;;;20.40;43.30;;;;;;4098183;28;19929;-41
2022/06/09 06:30:46;;;;;;;;;;;20.70;43.20;;;;;;4093847;28;19947;-41
2022/06/09 06:32:48;;;;;;;;;;;21.00;42.60;;;;;;4090041;28;20018;-39
2022/06/09 06:34:49;;;;;;;;;;;21.30;42.00;;;;;;4094270;28;20537;-37
2022/06/09 06:36:51;;;;;;;;;;;21.30;41.90;;;;;;4094207;28;20596;-37
2022/06/09 06:38:52;;;;;;;;;;;21.10;41.90;;;;;;4089163;28;20064;-38
2022/06/09 06:40:56;;;;;;;;;;;21.00;42.50;;;;;;4093694;28;19960;-38
2022/06/09 06:42:58;;;;;;;;;;;20.80;42.80;;;;;;4099078;28;19929;-39
2022/06/09 06:45:00;;;;;;;;;;;20.70;43.20;;;;;;4088567;28;20320;-42
2022/06/09 06:47:01;;;;;;;;;;;20.50;43.40;;;;;;4090584;28;20072;-38
2022/06/09 06:49:03;;;;;;;;;;;20.40;43.50;;;;;;4081069;28;20109;-38
2022/06/09 06:51:07;;;;;;;;;;;20.30;43.80;;;;;;4089057;28;20404;-38
2022/06/09 06:53:12;;;;;;;;;;;20.30;44.00;;;;;;4089919;28;20019;-41
2022/06/09 06:55:15;;;;;;;;;;;20.20;44.10;;;;;;4091363;28;19973;-38
2022/06/09 06:57:17;;;;;;;;;;;20.20;44.20;;;;;;4094392;28;20247;-37
2022/06/09 06:59:18;;;;;;;;;;;20.10;44.40;;;;;;4092201;28;19983;-40
2022/06/09 07:01:20;;;;;;;;;;;20.10;44.60;;;;;;4089147;28;19925;-42
2022/06/09 07:03:21;;;;;;;;;;;20.00;44.60;;;;;;4097405;28;19929;-39
2022/06/09 07:05:23;;;;;;;;;;;20.00;44.60;;;;;;4094222;28;19925;-38
2022/06/09 07:07:25;;;;;;;;;;;20.00;44.70;;;;;;4097950;28;19937;-42
2022/06/09 07:09:26;;;;;;;;;;;19.90;44.60;;;;;;4109033;28;19944;-37
2022/06/09 07:11:28;;;;;;;;;;;19.90;44.40;;;;;;4101755;28;21128;-40
2022/06/09 07:13:29;;;;;;;;;;;19.90;44.50;;;;;;4102723;28;20368;-38
2022/06/09 07:15:31;;;;;;;;;;;19.80;44.40;;;;;;4111311;28;20417;-37
2022/06/09 07:17:32;;;;;;;;;;;19.80;44.40;;;;;;4100997;28;20335;-38
2022/06/09 07:19:34;;;;;;;;;;;19.70;44.30;;;;;;4097390;28;20003;-38
2022/06/09 07:21:36;;;;;;;;;;;19.70;44.40;;;;;;4108764;28;19988;-37
2022/06/09 07:23:38;;;;;;;;;;;19.60;44.40;;;;;;4099100;28;20243;-38
2022/06/09 07:25:39;;;;;;;;;;;19.60;44.40;;;;;;4101085;28;19931;-37
2022/06/09 07:27:41;;;;;;;;;;;19.60;44.50;;;;;;4105735;28;19979;-37
2022/06/09 07:29:43;;;;;;;;;;;19.60;44.70;;;;;;4102965;28;20643;-37
2022/06/09 07:31:44;;;;;;;;;;;19.50;44.80;;;;;;4094069;28;20380;-38
2022/06/09 07:33:46;;;;;;;;;;;19.50;45.00;;;;;;4097894;28;19929;-37
2022/06/09 07:35:51;;;;;;;;;;;19.50;45.00;;;;;;4103151;28;19945;-37
2022/06/09 07:37:53;;;;;;;;;;;19.50;45.20;;;;;;4094046;28;20633;-38
2022/06/09 07:39:54;;;;;;;;;;;19.50;45.20;;;;;;4093982;28;19991;-37
2022/06/09 07:41:56;;;;;;;;;;;19.40;45.70;;;;;;4103526;28;19968;-36
2022/06/09 07:43:59;;;;;;;;;;;19.40;45.80;;;;;;4096059;28;20753;-37
2022/06/09 07:46:01;;;;;;;;;;;19.40;45.90;;;;;;4096931;28;20384;-36
2022/06/09 07:48:04;;;;;;;;;;;19.40;46.00;;;;;;4099669;28;19929;-36
2022/06/09 07:50:08;;;;;;;;;;;19.40;45.90;;;;;;4100041;28;20303;-39
2022/06/09 07:52:10;;;;;;;;;;;19.40;45.90;;;;;;4093617;28;19929;-40
2022/06/09 07:54:11;;;;;;;;;;;19.30;46.00;;;;;;4095614;28;19925;-39
2022/06/09 07:56:13;;;;;;;;;;;19.50;46.40;;;;;;4102598;28;20515;-37
2022/06/09 07:58:16;;;;;;;;;;;19.80;45.90;;;;;;4097252;28;20445;-36
2022/06/09 08:00:18;;;;;;;;;;;20.40;45.70;;;;;;4096667;28;19925;-38
2022/06/09 08:02:20;;;;;;;;;;;21.00;44.10;;;;;;4106411;28;19933;-37
2022/06/09 08:04:22;;;;;;;;;;;21.50;43.10;;;;;;4097035;28;19973;-38
2022/06/09 08:06:23;;;;;;;;;;;21.90;42.40;;;;;;4097795;28;20009;-37
2022/06/09 08:08:25;;;;;;;;;;;22.30;41.80;;;;;;4103945;28;19925;-37
2022/06/09 08:10:28;;;;;;;;;;;22.70;41.30;;;;;;4098225;28;21004;-42
2022/06/09 08:12:29;;;;;;;;;;;23.00;40.90;;;;;;4096964;28;20454;-37
2022/06/09 08:14:31;;;;;;;;;;;23.40;40.50;;;;;;4100791;28;20409;-38
2022/06/09 08:16:33;;;;;;;;;;;23.70;40.10;;;;;;4099407;28;19968;-43
2022/06/09 08:18:35;;;;;;;;;;;23.90;39.50;;;;;;4098614;28;19984;-43
2022/06/09 08:20:38;;;;;;;;;;;24.10;39.00;;;;;;4093768;28;20318;-37
2022/06/09 08:22:43;;;;;;;;;;;24.30;38.80;;;;;;4101690;28;19929;-37
2022/06/09 08:24:46;;;;;;;;;;;24.60;38.40;;;;;;4095505;28;20110;-37
2022/06/09 08:26:48;;;;;;;;;;;24.80;38.00;;;;;;4100403;28;20197;-39
2022/06/09 08:28:50;;;;;;;;;;;24.90;37.80;;;;;;4102397;28;19925;-35
2022/06/09 08:30:53;;;;;;;;;;;25.10;37.60;;;;;;4104155;28;20995;-39
2022/06/09 08:32:57;;;;;;;;;;;25.30;37.40;;;;;;4097815;28;19983;-41
2022/06/09 08:34:58;;;;;;;;;;;25.40;37.20;;;;;;4097967;28;19929;-38
2022/06/09 08:37:00;;;;;;;;;;;25.60;36.90;;;;;;4106442;28;20035;-38
2022/06/09 08:39:01;;;;;;;;;;;25.80;36.90;;;;;;4099691;28;20068;-38
2022/06/09 08:41:17;;;;;;;;;;;25.90;36.70;;;;;;4101048;28;20377;-34
2022/06/09 08:43:22;;;;;;;;;;;26.00;36.60;;;;;;4099683;28;19936;-46
2022/06/09 08:45:35;;;;;;;;;;;26.20;36.70;;;;;;4101787;28;19929;-35
2022/06/09 08:47:38;;;;;;;;;;;26.40;36.60;;;;;;4099202;28;20019;-36
2022/06/09 08:49:40;;;;;;;;;;;26.50;36.40;;;;;;4108272;28;20349;-35
2022/06/09 08:51:47;;;;;;;;;;;26.70;36.50;;;;;;4096265;28;20926;-35
2022/06/09 08:53:51;;;;;;;;;;;26.90;36.40;;;;;;4100124;28;19994;-37
2022/06/09 08:55:55;;;;;;;;;;;27.00;36.20;;;;;;4100310;28;20409;-37
2022/06/09 08:58:05;;;;;;;;;;;27.10;36.00;;;;;;4109081;28;20343;-38
2022/06/09 09:00:10;;;;;;;;;;;27.30;36.10;;;;;;4106155;28;19929;-38
2022/06/09 09:02:25;;;;;;;;;;;27.00;36.00;;;;;;4099251;28;19929;-37
2022/06/09 09:04:31;;;;;;;;;;;26.60;36.40;;;;;;4101943;28;19930;-38
2022/06/09 09:06:43;;;;;;;;;;;26.20;36.70;;;;;;4093572;28;19932;-37
2022/06/09 09:08:45;;;;;;;;;;;25.90;37.20;;;;;;4098354;28;20376;-41
2022/06/09 09:10:52;;;;;;;;;;;25.60;37.40;;;;;;4099083;28;20667;-37
2022/06/09 09:13:00;;;;;;;;;;;25.30;37.70;;;;;;4097520;28;19936;-37
2022/06/09 09:15:11;;;;;;;;;;;25.10;38.00;;;;;;4106479;28;20417;-37
2022/06/09 09:17:19;;;;;;;;;;;24.90;38.20;;;;;;4104409;28;20035;-38
2022/06/09 09:19:26;;;;;;;;;;;24.70;38.40;;;;;;4104170;28;20003;-39
2022/06/09 09:21:28;;;;;;;;;;;24.50;38.60;;;;;;4098551;28;21024;-37
2022/06/09 09:23:37;;;;;;;;;;;24.40;38.80;;;;;;4097759;28;19929;-38
2022/06/09 09:25:42;;;;;;;;;;;24.20;39.00;;;;;;4096123;28;19967;-35
2022/06/09 09:27:52;;;;;;;;;;;24.10;39.20;;;;;;4104107;28;19976;-36
2022/06/09 09:30:02;;;;;;;;;;;24.00;39.40;;;;;;4105523;28;19929;-36
2022/06/09 09:32:06;;;;;;;;;;;23.80;39.50;;;;;;4101655;28;19929;-37
2022/06/09 09:34:16;;;;;;;;;;;23.70;39.60;;;;;;4097529;28;20903;-36
2022/06/09 09:36:31;;;;;;;;;;;23.60;39.80;;;;;;4096434;28;20724;-37
2022/06/09 09:38:40;;;;;;;;;;;23.50;39.80;;;;;;4099160;28;19936;-38
2022/06/09 09:40:43;;;;;;;;;;;23.40;39.80;;;;;;4095572;28;19929;-36
2022/06/09 09:42:46;;;;;;;;;;;23.30;40.00;;;;;;4102261;28;19932;-36
2022/06/09 09:45:06;;;;;;;;;;;23.20;40.10;;;;;;4107799;28;19925;-36
2022/06/09 09:47:07;;;;;;;;;;;23.10;40.30;;;;;;4099554;28;19936;-36
2022/06/09 09:49:20;;;;;;;;;;;23.00;40.40;;;;;;4110002;28;20317;-36
2022/06/09 09:51:31;;;;;;;;;;;22.90;40.50;;;;;;4108532;28;19937;-36
2022/06/09 09:53:34;;;;;;;;;;;22.80;40.50;;;;;;4110183;28;20397;-38
2022/06/09 09:55:38;;;;;;;;;;;22.70;40.70;;;;;;4103851;28;21019;-38
2022/06/09 09:57:40;;;;;;;;;;;22.70;40.90;;;;;;4099382;28;19933;-36
2022/06/09 09:59:46;;;;;;;;;;;22.60;41.10;;;;;;4103786;28;19936;-36
2022/06/09 10:09:07;;;;;;;;;;;22.20;41.50;;;;;;4091060;28;19929;-34
2022/06/09 10:14:17;;;;;;;;;;;22.10;41.70;;;;;;4095827;28;20318;-35
2022/06/09 10:16:27;;;;;;;;;;;22.00;41.90;;;;;;4087198;28;19929;-35
2022/06/09 10:18:29;;;;;;;;;;;21.90;42.00;;;;;;4081616;28;19930;-35
2022/06/09 10:20:32;;;;;;;;;;;21.80;42.20;;;;;;4073879;28;19932;-35
2022/06/09 10:22:35;;;;;;;;;;;21.70;42.20;;;;;;4086412;28;20802;-34
2022/06/09 10:24:43;;;;;;;;;;;21.70;42.30;;;;;;4085899;28;19940;-35
2022/06/09 10:26:46;;;;;;;;;;;21.60;42.40;;;;;;4084832;28;19930;-35
2022/06/09 10:28:58;;;;;;;;;;;21.50;42.50;;;;;;4092323;28;19934;-35
2022/06/09 10:31:03;;;;;;;;;;;21.40;42.70;;;;;;4091263;28;20268;-36
2022/06/09 10:33:23;;;;;;;;;;;21.40;42.80;;;;;;4092233;28;19937;-35
2022/06/09 10:35:24;;;;;;;;;;;21.30;42.90;;;;;;4094099;28;20277;-34
2022/06/09 10:37:41;;;;;;;;;;;21.30;43.20;;;;;;4083763;28;20145;-34
2022/06/09 10:40:12;;;;;;;;;;;21.20;43.20;;;;;;4095215;28;20242;-35
2022/06/09 10:42:31;;;;;;;;;;;21.20;43.30;;;;;;4060054;28;20648;-34
2022/06/09 10:44:35;;;;;;;;;;;21.10;43.40;;;;;;4085877;28;20405;-35
2022/06/09 10:46:41;;;;;;;;;;;21.00;43.50;;;;;;4068551;28;19997;-34
2022/06/09 10:56:14;;;;;;;;;;;20.70;43.80;;;;;;4087647;28;20776;-37
2022/06/09 10:58:31;;;;;;;;;;;20.70;44.00;;;;;;4088375;28;19925;-35
2022/06/09 11:00:53;;;;;;;;;;;20.60;44.00;;;;;;4068597;28;21033;-36
2022/06/09 11:02:55;;;;;;;;;;;20.60;44.20;;;;;;4093520;28;19944;-34
2022/06/09 11:04:57;;;;;;;;;;;20.50;44.30;;;;;;4070194;28;20337;-34
2022/06/09 11:07:08;;;;;;;;;;;20.40;44.30;;;;;;4097593;28;20381;-34
2022/06/09 11:09:33;;;;;;;;;;;20.40;44.30;;;;;;4093532;28;19956;-37
2022/06/09 11:11:41;;;;;;;;;;;20.30;44.40;;;;;;4097438;28;20039;-34
2022/06/09 11:13:49;;;;;;;;;;;20.30;44.50;;;;;;4097202;28;19973;-40
2022/06/09 11:16:10;;;;;;;;;;;20.20;44.60;;;;;;4094408;28;20782;-37
2022/06/09 11:18:18;;;;;;;;;;;20.20;44.70;;;;;;4086860;28;21373;-34
2022/06/09 11:20:37;;;;;;;;;;;20.10;44.80;;;;;;4096503;28;19921;-35
2022/06/09 11:23:01;;;;;;;;;;;20.10;44.90;;;;;;4100316;28;20965;-35
2022/06/09 11:25:21;;;;;;;;;;;20.00;45.10;;;;;;4096189;28;19928;-35
2022/06/09 11:27:26;;;;;;;;;;;20.00;45.30;;;;;;4096403;28;20009;-34
2022/06/09 11:29:41;;;;;;;;;;;19.90;45.20;;;;;;4099133;28;20304;-36
2022/06/09 11:31:49;;;;;;;;;;;19.90;45.30;;;;;;4095310;28;19930;-36
2022/06/09 11:33:51;;;;;;;;;;;19.90;45.40;;;;;;4100994;28;20388;-36
2022/06/09 11:35:52;;;;;;;;;;;19.80;45.50;;;;;;4101458;28;19979;-35
2022/06/09 11:37:54;;;;;;;;;;;19.80;45.50;;;;;;4096666;28;20315;-34
2022/06/09 11:40:04;;;;;;;;;;;19.80;45.70;;;;;;4098338;28;20481;-35
2022/06/09 11:42:34;;;;;;;;;;;19.70;45.60;;;;;;4099159;28;19929;-35
2022/06/09 11:44:37;;;;;;;;;;;19.70;45.70;;;;;;4093641;28;20067;-34
2022/06/09 11:46:40;;;;;;;;;;;19.60;45.60;;;;;;4096208;28;20020;-36
2022/06/09 11:48:44;;;;;;;;;;;19.60;45.90;;;;;;4100394;28;19925;-34
2022/06/09 11:50:46;;;;;;;;;;;19.50;46.00;;;;;;4103960;28;20411;-33
2022/06/09 11:52:49;;;;;;;;;;;19.50;46.10;;;;;;4098441;28;19929;-35
2022/06/09 11:54:51;;;;;;;;;;;19.50;46.30;;;;;;4098469;28;20199;-34
2022/06/09 11:57:12;;;;;;;;;;;19.50;46.30;;;;;;4103873;28;20021;-34
2022/06/09 11:59:19;;;;;;;;;;;19.40;46.30;;;;;;4101162;28;20326;-35
2022/06/09 12:01:24;;;;;;;;;;;19.40;46.50;;;;;;4105906;28;20251;-34
2022/06/09 12:03:32;;;;;;;;;;;19.40;46.50;;;;;;4103011;28;20459;-35
2022/06/09 12:05:37;;;;;;;;;;;19.30;46.60;;;;;;4097112;28;20065;-35
2022/06/09 12:08:07;;;;;;;;;;;19.30;46.70;;;;;;4097796;28;20328;-34
2022/06/09 12:10:24;;;;;;;;;;;19.30;46.60;;;;;;4100051;28;19943;-36
2022/06/09 12:12:37;;;;;;;;;;;19.20;46.50;;;;;;4101226;28;19929;-35
2022/06/09 12:14:40;;;;;;;;;;;19.20;46.70;;;;;;4100199;28;20404;-35
2022/06/09 12:17:05;;;;;;;;;;;19.20;46.70;;;;;;4106106;28;20460;-34
2022/06/09 12:19:26;;;;;;;;;;;19.10;46.80;;;;;;4097903;28;19940;-34
2022/06/09 12:21:29;;;;;;;;;;;19.10;46.90;;;;;;4098053;28;19937;-35
2022/06/09 12:23:41;;;;;;;;;;;19.10;46.80;;;;;;4096308;28;19937;-34
2022/06/09 12:25:42;;;;;;;;;;;19.10;47.00;;;;;;4097496;28;19929;-35
2022/06/09 12:27:47;;;;;;;;;;;19.00;46.90;;;;;;4107533;28;19964;-35
2022/06/09 12:29:58;;;;;;;;;;;19.00;47.00;;;;;;4099787;28;20109;-35
2022/06/09 12:32:09;;;;;;;;;;;19.00;47.30;;;;;;4097708;28;20632;-36